createdAt,value
2018-04-22T00:00:21.080Z,14.47
2018-04-22T00:01:21.038Z,14.48
2018-04-22T00:02:21.016Z,14.44
2018-04-22T00:03:20.941Z,14.50
2018-04-22T00:04:20.891Z,14.43
2018-04-22T00:05:20.852Z,14.50
2018-04-22T00:06:20.806Z,14.47
2018-04-22T00:07:20.780Z,14.48
2018-04-22T00:08:20.712Z,14.40
2018-04-22T00:09:20.669Z,14.45
2018-04-22T00:10:20.619Z,14.43
2018-04-22T00:11:20.573Z,14.40
2018-04-22T00:12:20.556Z,14.38
2018-04-22T00:13:20.484Z,14.43
2018-04-22T00:14:20.435Z,14.38
2018-04-22T00:15:20.392Z,14.44
2018-04-22T00:16:20.346Z,14.41
2018-04-22T00:17:20.321Z,14.44
2018-04-22T00:18:20.252Z,14.40
2018-04-22T00:19:20.203Z,14.41
2018-04-22T00:20:20.161Z,14.43
2018-04-22T00:21:20.114Z,14.43
2018-04-22T00:22:20.095Z,14.30
2018-04-22T00:23:20.029Z,14.43
2018-04-22T00:24:19.975Z,14.40
2018-04-22T00:25:19.936Z,14.44
2018-04-22T00:26:19.883Z,14.36
2018-04-22T00:27:19.865Z,14.43
2018-04-22T00:28:19.796Z,14.33
2018-04-22T00:29:19.742Z,14.40
2018-04-22T00:30:19.702Z,14.43
2018-04-22T00:31:19.655Z,14.43
2018-04-22T00:32:19.636Z,14.45
2018-04-22T00:33:19.563Z,14.45
2018-04-22T00:34:19.517Z,14.40
2018-04-22T00:35:19.471Z,14.40
2018-04-22T00:36:19.426Z,14.38
2018-04-22T00:37:19.408Z,14.36
2018-04-22T00:38:19.338Z,14.32
2018-04-22T00:39:19.285Z,14.36
2018-04-22T00:40:19.242Z,14.37
2018-04-22T00:41:19.194Z,14.36
2018-04-22T00:42:19.169Z,14.33
2018-04-22T00:43:19.101Z,14.37
2018-04-22T00:44:19.055Z,14.36
2018-04-22T00:45:19.011Z,14.32
2018-04-22T00:46:18.966Z,14.37
2018-04-22T00:47:18.940Z,14.40
2018-04-22T00:48:18.873Z,14.37
2018-04-22T00:49:18.828Z,14.36
2018-04-22T00:50:18.779Z,14.28
2018-04-22T00:51:18.733Z,14.23
2018-04-22T00:52:18.715Z,14.26
2018-04-22T00:53:18.654Z,14.22
2018-04-22T00:54:18.596Z,14.26
2018-04-22T00:55:18.549Z,14.23
2018-04-22T00:56:18.502Z,14.19
2018-04-22T00:57:18.480Z,14.15
2018-04-22T00:58:18.429Z,14.10
2018-04-22T00:59:18.364Z,14.11
2018-04-22T01:00:18.319Z,14.11
2018-04-22T01:01:18.273Z,14.11
2018-04-22T01:02:18.253Z,14.05
2018-04-22T01:03:18.180Z,14.07
2018-04-22T01:04:18.136Z,13.97
2018-04-22T01:05:18.089Z,14.01
2018-04-22T01:06:18.044Z,13.96
2018-04-22T01:07:18.021Z,14.00
2018-04-22T01:08:17.950Z,14.01
2018-04-22T01:09:17.906Z,14.03
2018-04-22T01:10:17.858Z,14.01
2018-04-22T01:11:17.814Z,13.97
2018-04-22T01:12:17.792Z,13.97
2018-04-22T01:13:17.720Z,13.96
2018-04-22T01:14:17.674Z,13.92
2018-04-22T01:15:17.625Z,13.92
2018-04-22T01:16:17.593Z,13.93
2018-04-22T01:17:17.558Z,13.95
2018-04-22T01:18:17.491Z,13.92
2018-04-22T01:19:17.444Z,13.90
2018-04-22T01:20:17.396Z,13.83
2018-04-22T01:21:17.356Z,13.85
2018-04-22T01:22:17.329Z,13.85
2018-04-22T01:23:17.259Z,13.85
2018-04-22T01:24:17.212Z,13.86
2018-04-22T01:25:17.168Z,13.86
2018-04-22T01:26:17.130Z,13.88
2018-04-22T01:27:17.101Z,13.78
2018-04-22T01:28:17.031Z,13.86
2018-04-22T01:29:16.986Z,13.78
2018-04-22T01:30:16.938Z,13.83
2018-04-22T01:31:16.895Z,13.78
2018-04-22T01:32:16.870Z,13.67
2018-04-22T01:33:16.802Z,13.77
2018-04-22T01:34:16.756Z,13.75
2018-04-22T01:35:16.709Z,13.70
2018-04-22T01:36:16.661Z,13.68
2018-04-22T01:37:16.641Z,13.63
2018-04-22T01:38:16.570Z,13.70
2018-04-22T01:39:16.526Z,13.70
2018-04-22T01:40:16.477Z,13.64
2018-04-22T01:41:16.434Z,13.64
2018-04-22T01:42:16.409Z,13.75
2018-04-22T01:43:16.340Z,13.68
2018-04-22T01:44:16.297Z,13.59
2018-04-22T01:45:16.251Z,13.64
2018-04-22T01:46:16.199Z,13.53
2018-04-22T01:47:16.179Z,13.50
2018-04-22T01:48:16.108Z,13.52
2018-04-22T01:49:16.067Z,13.47
2018-04-22T01:50:16.023Z,13.50
2018-04-22T01:51:15.975Z,13.52
2018-04-22T01:52:15.946Z,13.49
2018-04-22T01:53:15.878Z,13.60
2018-04-22T01:54:15.831Z,13.41
2018-04-22T01:55:15.785Z,13.49
2018-04-22T01:56:15.740Z,13.43
2018-04-22T01:57:15.716Z,13.43
2018-04-22T01:58:15.645Z,13.50
2018-04-22T01:59:15.599Z,13.38
2018-04-22T02:00:15.553Z,13.50
2018-04-22T02:01:15.506Z,13.38
2018-04-22T02:02:15.481Z,13.39
2018-04-22T02:03:15.414Z,13.33
2018-04-22T02:04:15.368Z,13.38
2018-04-22T02:05:15.321Z,13.47
2018-04-22T02:06:15.277Z,13.46
2018-04-22T02:07:15.253Z,13.50
2018-04-22T02:08:15.183Z,13.38
2018-04-22T02:09:15.136Z,13.38
2018-04-22T02:10:15.093Z,13.39
2018-04-22T02:11:15.044Z,13.38
2018-04-22T02:12:15.018Z,13.35
2018-04-22T02:13:14.948Z,13.33
2018-04-22T02:14:14.900Z,13.38
2018-04-22T02:15:14.854Z,13.37
2018-04-22T02:16:14.809Z,13.33
2018-04-22T02:17:14.790Z,13.35
2018-04-22T02:18:14.717Z,13.24
2018-04-22T02:19:14.675Z,13.33
2018-04-22T02:20:14.632Z,13.38
2018-04-22T02:21:14.583Z,13.33
2018-04-22T02:22:14.558Z,13.33
2018-04-22T02:23:14.490Z,13.26
2018-04-22T02:24:14.438Z,13.26
2018-04-22T02:25:14.390Z,13.30
2018-04-22T02:26:14.348Z,13.26
2018-04-22T02:27:14.327Z,13.21
2018-04-22T02:28:14.251Z,13.22
2018-04-22T02:29:14.210Z,13.15
2018-04-22T02:30:14.161Z,13.18
2018-04-22T02:31:14.113Z,13.13
2018-04-22T02:32:14.092Z,13.13
2018-04-22T02:33:14.025Z,13.11
2018-04-22T02:34:13.980Z,13.13
2018-04-22T02:35:13.931Z,13.09
2018-04-22T02:36:13.882Z,13.08
2018-04-22T02:37:13.860Z,13.01
2018-04-22T02:38:13.788Z,12.97
2018-04-22T02:39:13.739Z,12.96
2018-04-22T02:40:13.699Z,12.96
2018-04-22T02:41:13.653Z,12.96
2018-04-22T02:42:13.616Z,12.91
2018-04-22T02:43:13.583Z,12.93
2018-04-22T02:44:13.508Z,12.98
2018-04-22T02:45:13.460Z,12.96
2018-04-22T02:46:13.416Z,12.87
2018-04-22T02:47:13.368Z,12.87
2018-04-22T02:48:13.345Z,12.90
2018-04-22T02:49:13.274Z,12.82
2018-04-22T02:50:13.230Z,12.78
2018-04-22T02:51:13.184Z,12.78
2018-04-22T02:52:13.135Z,12.83
2018-04-22T02:53:13.114Z,12.85
2018-04-22T02:54:13.044Z,12.80
2018-04-22T02:55:12.993Z,12.82
2018-04-22T02:56:12.948Z,12.72
2018-04-22T02:57:12.902Z,12.80
2018-04-22T02:58:12.880Z,12.82
2018-04-22T02:59:12.809Z,12.75
2018-04-22T03:00:12.765Z,12.71
2018-04-22T03:01:12.718Z,12.64
2018-04-22T03:02:12.667Z,12.65
2018-04-22T03:03:12.645Z,12.69
2018-04-22T03:04:12.578Z,12.64
2018-04-22T03:05:12.540Z,12.60
2018-04-22T03:06:12.483Z,12.64
2018-04-22T03:07:12.435Z,12.60
2018-04-22T03:08:12.415Z,12.53
2018-04-22T03:09:12.344Z,12.54
2018-04-22T03:10:12.307Z,12.55
2018-04-22T03:11:12.260Z,12.45
2018-04-22T03:12:12.205Z,12.54
2018-04-22T03:13:12.181Z,12.53
2018-04-22T03:14:12.108Z,12.47
2018-04-22T03:15:12.066Z,12.47
2018-04-22T03:16:12.019Z,12.45
2018-04-22T03:17:11.970Z,12.45
2018-04-22T03:18:11.945Z,12.38
2018-04-22T03:19:11.874Z,12.36
2018-04-22T03:20:11.834Z,12.38
2018-04-22T03:21:11.782Z,12.38
2018-04-22T03:22:11.783Z,12.42
2018-04-22T03:23:11.711Z,12.46
2018-04-22T03:24:11.644Z,12.42
2018-04-22T03:25:11.599Z,12.35
2018-04-22T03:26:11.553Z,12.35
2018-04-22T03:27:11.499Z,12.35
2018-04-22T03:28:11.479Z,12.38
2018-04-22T03:29:11.412Z,12.33
2018-04-22T03:30:11.365Z,12.24
2018-04-22T03:31:11.314Z,12.39
2018-04-22T03:32:11.267Z,12.35
2018-04-22T03:33:11.245Z,12.42
2018-04-22T03:34:11.175Z,12.39
2018-04-22T03:35:11.130Z,12.38
2018-04-22T03:36:11.083Z,12.38
2018-04-22T03:37:11.037Z,12.33
2018-04-22T03:38:11.010Z,12.36
2018-04-22T03:39:10.939Z,12.40
2018-04-22T03:40:10.896Z,12.39
2018-04-22T03:41:10.850Z,12.32
2018-04-22T03:42:10.800Z,12.36
2018-04-22T03:43:10.777Z,12.38
2018-04-22T03:44:10.709Z,12.33
2018-04-22T03:45:10.668Z,12.45
2018-04-22T03:46:10.615Z,12.38
2018-04-22T03:47:10.577Z,12.30
2018-04-22T03:48:10.548Z,12.38
2018-04-22T03:49:10.475Z,12.39
2018-04-22T03:50:10.430Z,12.40
2018-04-22T03:51:10.379Z,12.35
2018-04-22T03:52:10.337Z,12.39
2018-04-22T03:53:10.311Z,12.36
2018-04-22T03:54:10.242Z,12.30
2018-04-22T03:55:10.200Z,12.33
2018-04-22T03:56:10.148Z,12.32
2018-04-22T03:57:10.103Z,12.25
2018-04-22T03:58:10.080Z,12.25
2018-04-22T03:59:10.008Z,12.33
2018-04-22T04:00:09.960Z,12.28
2018-04-22T04:01:09.910Z,12.25
2018-04-22T04:02:09.873Z,12.21
2018-04-22T04:03:09.845Z,12.22
2018-04-22T04:04:09.773Z,12.30
2018-04-22T04:05:09.726Z,12.22
2018-04-22T04:06:09.686Z,12.24
2018-04-22T04:07:09.634Z,12.24
2018-04-22T04:08:09.606Z,12.32
2018-04-22T04:09:09.540Z,12.30
2018-04-22T04:10:09.495Z,12.25
2018-04-22T04:11:09.447Z,12.33
2018-04-22T04:12:09.399Z,12.35
2018-04-22T04:13:09.377Z,12.21
2018-04-22T04:14:09.309Z,12.40
2018-04-22T04:15:09.257Z,12.39
2018-04-22T04:16:09.212Z,12.39
2018-04-22T04:17:09.167Z,12.35
2018-04-22T04:18:09.157Z,12.39
2018-04-22T04:19:09.079Z,12.46
2018-04-22T04:20:09.022Z,12.58
2018-04-22T04:21:08.981Z,12.57
2018-04-22T04:22:08.934Z,12.68
2018-04-22T04:23:08.883Z,12.69
2018-04-22T04:24:08.864Z,12.72
2018-04-22T04:25:08.789Z,12.79
2018-04-22T04:26:08.743Z,12.76
2018-04-22T04:27:08.696Z,12.94
2018-04-22T04:28:08.655Z,12.88
2018-04-22T04:29:08.625Z,13.01
2018-04-22T04:30:08.556Z,13.01
2018-04-22T04:31:08.510Z,13.16
2018-04-22T04:32:08.460Z,13.09
2018-04-22T04:33:08.415Z,13.12
2018-04-22T04:34:08.393Z,13.15
2018-04-22T04:35:08.323Z,13.19
2018-04-22T04:36:08.289Z,13.21
2018-04-22T04:37:08.223Z,13.21
2018-04-22T04:38:08.185Z,13.26
2018-04-22T04:39:08.159Z,13.30
2018-04-22T04:40:08.090Z,13.26
2018-04-22T04:41:08.042Z,13.30
2018-04-22T04:42:07.996Z,13.29
2018-04-22T04:43:07.948Z,13.21
2018-04-22T04:44:07.925Z,13.18
2018-04-22T04:45:07.858Z,13.11
2018-04-22T04:46:07.806Z,13.11
2018-04-22T04:47:07.766Z,13.05
2018-04-22T04:48:07.714Z,13.11
2018-04-22T04:49:07.693Z,12.98
2018-04-22T04:50:07.623Z,12.93
2018-04-22T04:51:07.580Z,12.96
2018-04-22T04:52:07.528Z,12.96
2018-04-22T04:53:07.483Z,12.96
2018-04-22T04:54:07.463Z,12.97
2018-04-22T04:55:07.389Z,12.98
2018-04-22T04:56:07.356Z,12.97
2018-04-22T04:57:07.297Z,13.11
2018-04-22T04:58:07.249Z,13.08
2018-04-22T04:59:07.224Z,13.11
2018-04-22T05:00:07.156Z,13.16
2018-04-22T05:01:07.110Z,13.21
2018-04-22T05:02:07.065Z,13.22
2018-04-22T05:03:07.016Z,13.29
2018-04-22T05:04:07.011Z,13.33
2018-04-22T05:05:06.923Z,13.29
2018-04-22T05:06:06.876Z,13.31
2018-04-22T05:07:06.828Z,13.39
2018-04-22T05:08:06.786Z,13.49
2018-04-22T05:09:06.738Z,13.49
2018-04-22T05:10:06.715Z,13.49
2018-04-22T05:11:06.655Z,13.52
2018-04-22T05:12:06.600Z,13.53
2018-04-22T05:13:06.556Z,13.50
2018-04-22T05:14:06.504Z,13.49
2018-04-22T05:15:06.482Z,13.49
2018-04-22T05:16:06.412Z,13.64
2018-04-22T05:17:06.370Z,13.63
2018-04-22T05:18:06.321Z,13.71
2018-04-22T05:19:06.278Z,13.72
2018-04-22T05:20:06.256Z,13.71
2018-04-22T05:21:06.181Z,13.77
2018-04-22T05:22:06.143Z,13.72
2018-04-22T05:23:06.091Z,13.80
2018-04-22T05:24:06.042Z,13.75
2018-04-22T05:25:06.026Z,13.77
2018-04-22T05:26:05.960Z,13.86
2018-04-22T05:27:05.905Z,13.85
2018-04-22T05:28:05.867Z,13.89
2018-04-22T05:29:05.815Z,13.85
2018-04-22T05:30:05.792Z,13.90
2018-04-22T05:31:05.723Z,13.89
2018-04-22T05:32:05.674Z,13.95
2018-04-22T05:33:05.631Z,14.01
2018-04-22T05:34:05.584Z,13.97
2018-04-22T05:35:05.562Z,14.01
2018-04-22T05:36:05.490Z,14.15
2018-04-22T05:37:05.451Z,14.07
2018-04-22T05:38:05.438Z,14.05
2018-04-22T05:39:05.355Z,14.15
2018-04-22T05:40:05.333Z,14.19
2018-04-22T05:41:05.267Z,14.14
2018-04-22T05:42:05.219Z,14.15
2018-04-22T05:43:05.164Z,14.23
2018-04-22T05:44:05.125Z,14.26
2018-04-22T05:45:05.101Z,14.25
2018-04-22T05:46:05.033Z,14.29
2018-04-22T05:47:04.985Z,14.40
2018-04-22T05:48:04.938Z,14.41
2018-04-22T05:49:04.891Z,14.51
2018-04-22T05:50:04.874Z,14.51
2018-04-22T05:51:04.806Z,14.45
2018-04-22T05:52:04.760Z,14.56
2018-04-22T05:53:04.711Z,14.53
2018-04-22T05:54:04.671Z,14.51
2018-04-22T05:55:04.651Z,14.56
2018-04-22T05:56:04.575Z,14.62
2018-04-22T05:57:04.538Z,14.66
2018-04-22T05:58:04.496Z,14.51
2018-04-22T05:59:04.438Z,14.63
2018-04-22T06:00:04.389Z,14.66
2018-04-22T06:01:04.391Z,14.77
2018-04-22T06:02:04.310Z,14.78
2018-04-22T06:03:04.253Z,14.74
2018-04-22T06:04:04.211Z,14.78
2018-04-22T06:05:04.168Z,14.85
2018-04-22T06:06:04.146Z,14.79
2018-04-22T06:07:04.090Z,14.74
2018-04-22T06:08:04.039Z,14.78
2018-04-22T06:09:03.986Z,14.78
2018-04-22T06:10:03.940Z,14.87
2018-04-22T06:11:03.916Z,14.85
2018-04-22T06:12:03.845Z,14.89
2018-04-22T06:13:03.799Z,14.99
2018-04-22T06:14:03.756Z,15.03
2018-04-22T06:15:03.711Z,14.97
2018-04-22T06:16:03.686Z,15.14
2018-04-22T06:17:03.620Z,15.21
2018-04-22T06:18:03.572Z,15.21
2018-04-22T06:19:03.525Z,15.30
2018-04-22T06:20:03.481Z,15.36
2018-04-22T06:21:03.459Z,15.42
2018-04-22T06:22:03.392Z,15.57
2018-04-22T06:23:03.347Z,15.70
2018-04-22T06:24:03.303Z,15.80
2018-04-22T06:25:03.259Z,15.97
2018-04-22T06:26:03.238Z,15.98
2018-04-22T06:27:03.163Z,16.08
2018-04-22T06:28:03.137Z,16.05
2018-04-22T06:29:03.074Z,16.17
2018-04-22T06:30:03.032Z,16.17
2018-04-22T06:31:03.007Z,16.06
2018-04-22T06:32:02.939Z,16.13
2018-04-22T06:33:02.894Z,16.05
2018-04-22T06:34:02.848Z,16.09
2018-04-22T06:35:02.803Z,16.05
2018-04-22T06:36:02.783Z,15.97
2018-04-22T06:37:02.716Z,16.01
2018-04-22T06:38:02.670Z,15.94
2018-04-22T06:39:02.625Z,15.85
2018-04-22T06:40:02.577Z,15.87
2018-04-22T06:41:02.561Z,15.75
2018-04-22T06:42:02.498Z,15.82
2018-04-22T06:43:02.463Z,15.72
2018-04-22T06:44:02.399Z,15.69
2018-04-22T06:45:02.354Z,15.73
2018-04-22T06:46:02.337Z,15.73
2018-04-22T06:47:02.267Z,15.72
2018-04-22T06:48:02.222Z,15.75
2018-04-22T06:49:02.177Z,15.73
2018-04-22T06:50:02.128Z,15.82
2018-04-22T06:51:02.113Z,15.91
2018-04-22T06:52:02.038Z,16.00
2018-04-22T06:53:01.995Z,16.09
2018-04-22T06:54:01.951Z,16.34
2018-04-22T06:55:01.907Z,16.36
2018-04-22T06:56:01.900Z,16.50
2018-04-22T06:57:01.817Z,16.68
2018-04-22T06:58:01.771Z,16.72
2018-04-22T06:59:01.725Z,16.76
2018-04-22T07:00:01.680Z,17.02
2018-04-22T07:01:01.661Z,17.02
2018-04-22T07:02:01.592Z,17.14
2018-04-22T07:03:01.543Z,17.29
2018-04-22T07:04:01.503Z,17.33
2018-04-22T07:05:01.461Z,17.51
2018-04-22T07:06:01.434Z,17.56
2018-04-22T07:07:01.365Z,17.64
2018-04-22T07:08:01.322Z,17.70
2018-04-22T07:09:01.283Z,17.76
2018-04-22T07:10:01.235Z,17.89
2018-04-22T07:11:01.212Z,17.97
2018-04-22T07:12:01.146Z,18.15
2018-04-22T07:13:01.100Z,18.10
2018-04-22T07:14:01.058Z,18.25
2018-04-22T07:15:01.011Z,18.31
2018-04-22T07:16:00.999Z,18.43
2018-04-22T07:17:00.965Z,18.46
2018-04-22T07:18:00.916Z,18.58
2018-04-22T07:19:00.834Z,18.62
2018-04-22T07:20:00.793Z,18.74
2018-04-22T07:21:00.769Z,18.73
2018-04-22T07:22:00.706Z,18.90
2018-04-22T07:23:00.659Z,18.99
2018-04-22T07:24:00.659Z,19.05
2018-04-22T07:25:00.571Z,19.08
2018-04-22T07:26:00.552Z,19.11
2018-04-22T07:27:00.483Z,19.07
2018-04-22T07:28:00.448Z,19.14
2018-04-22T07:29:00.399Z,19.22
2018-04-22T07:30:00.356Z,19.29
2018-04-22T07:31:00.336Z,19.33
2018-04-22T07:32:00.270Z,19.42
2018-04-22T07:33:00.224Z,19.42
2018-04-22T07:34:00.185Z,19.36
2018-04-22T07:35:00.138Z,19.41
2018-04-22T07:36:00.119Z,19.41
2018-04-22T07:37:00.055Z,19.37
2018-04-22T07:38:00.007Z,19.51
2018-04-22T07:38:59.966Z,19.56
2018-04-22T07:39:59.923Z,19.51
2018-04-22T07:40:59.902Z,19.56
2018-04-22T07:41:59.836Z,19.69
2018-04-22T07:42:59.796Z,19.66
2018-04-22T07:43:59.751Z,19.67
2018-04-22T07:44:59.709Z,19.71
2018-04-22T07:45:59.740Z,19.79
2018-04-22T07:46:59.620Z,19.91
2018-04-22T07:47:59.574Z,19.86
2018-04-22T07:48:59.534Z,20.03
2018-04-22T07:49:59.491Z,20.14
2018-04-22T07:50:59.472Z,20.00
2018-04-22T07:51:59.417Z,20.19
2018-04-22T07:52:59.364Z,20.19
2018-04-22T07:53:59.320Z,20.26
2018-04-22T07:54:59.278Z,20.28
2018-04-22T07:55:59.258Z,20.43
2018-04-22T07:56:59.207Z,20.36
2018-04-22T07:57:59.151Z,20.39
2018-04-22T07:58:59.109Z,20.53
2018-04-22T07:59:59.067Z,20.59
2018-04-22T08:00:59.047Z,20.66
2018-04-22T08:01:58.983Z,20.63
2018-04-22T08:02:58.938Z,20.60
2018-04-22T08:03:58.897Z,20.67
2018-04-22T08:04:58.855Z,20.82
2018-04-22T08:05:58.835Z,20.75
2018-04-22T08:06:58.765Z,20.78
2018-04-22T08:07:58.729Z,20.85
2018-04-22T08:08:58.684Z,20.90
2018-04-22T08:09:58.647Z,20.95
2018-04-22T08:10:58.621Z,20.95
2018-04-22T08:11:58.556Z,21.03
2018-04-22T08:12:58.516Z,21.08
2018-04-22T08:13:58.471Z,21.15
2018-04-22T08:14:58.430Z,21.29
2018-04-22T08:15:58.412Z,21.33
2018-04-22T08:16:58.344Z,21.36
2018-04-22T08:17:58.308Z,21.40
2018-04-22T08:18:58.276Z,21.39
2018-04-22T08:19:58.227Z,21.37
2018-04-22T08:20:58.205Z,21.39
2018-04-22T08:21:58.138Z,21.40
2018-04-22T08:22:58.095Z,21.42
2018-04-22T08:23:58.052Z,21.59
2018-04-22T08:24:58.014Z,21.61
2018-04-22T08:25:57.996Z,21.47
2018-04-22T08:26:57.927Z,21.47
2018-04-22T08:27:57.888Z,21.50
2018-04-22T08:28:57.851Z,21.37
2018-04-22T08:29:57.807Z,21.45
2018-04-22T08:30:57.784Z,21.33
2018-04-22T08:31:57.723Z,21.27
2018-04-22T08:32:57.681Z,21.10
2018-04-22T08:33:57.670Z,21.15
2018-04-22T08:34:57.600Z,21.21
2018-04-22T08:35:57.580Z,21.14
2018-04-22T08:36:57.514Z,21.29
2018-04-22T08:37:57.472Z,21.32
2018-04-22T08:38:57.431Z,21.37
2018-04-22T08:39:57.390Z,21.47
2018-04-22T08:40:57.368Z,21.55
2018-04-22T08:41:57.310Z,21.66
2018-04-22T08:42:57.262Z,21.76
2018-04-22T08:43:57.367Z,21.81
2018-04-22T08:44:57.181Z,21.85
2018-04-22T08:45:57.176Z,21.93
2018-04-22T08:46:57.099Z,22.05
2018-04-22T08:47:57.057Z,22.03
2018-04-22T08:48:57.023Z,22.08
2018-04-22T08:49:56.978Z,22.14
2018-04-22T08:50:56.945Z,22.15
2018-04-22T08:51:56.915Z,22.04
2018-04-22T08:52:56.850Z,22.04
2018-04-22T08:53:56.810Z,22.10
2018-04-22T08:54:56.768Z,22.07
2018-04-22T08:55:56.726Z,22.19
2018-04-22T08:56:56.708Z,22.23
2018-04-22T08:57:56.648Z,22.30
2018-04-22T08:58:56.607Z,22.41
2018-04-22T08:59:56.562Z,22.47
2018-04-22T09:00:56.521Z,22.48
2018-04-22T09:01:56.553Z,22.47
2018-04-22T09:02:56.439Z,22.44
2018-04-22T09:03:56.407Z,22.35
2018-04-22T09:04:56.356Z,22.45
2018-04-22T09:05:56.321Z,22.38
2018-04-22T09:06:56.302Z,22.50
2018-04-22T09:07:56.237Z,22.47
2018-04-22T09:08:56.196Z,22.63
2018-04-22T09:09:56.156Z,22.69
2018-04-22T09:10:56.113Z,22.80
2018-04-22T09:11:56.097Z,22.81
2018-04-22T09:12:56.033Z,22.81
2018-04-22T09:13:55.992Z,22.84
2018-04-22T09:14:55.951Z,22.85
2018-04-22T09:15:55.912Z,22.66
2018-04-22T09:16:55.895Z,22.72
2018-04-22T09:17:55.832Z,22.68
2018-04-22T09:18:55.789Z,22.70
2018-04-22T09:19:55.747Z,22.78
2018-04-22T09:20:55.713Z,22.84
2018-04-22T09:21:55.713Z,22.99
2018-04-22T09:22:55.627Z,23.03
2018-04-22T09:23:55.588Z,23.00
2018-04-22T09:24:55.548Z,22.96
2018-04-22T09:25:55.508Z,22.91
2018-04-22T09:26:55.487Z,23.13
2018-04-22T09:27:55.452Z,23.03
2018-04-22T09:28:55.384Z,22.99
2018-04-22T09:29:55.343Z,23.14
2018-04-22T09:30:55.303Z,23.14
2018-04-22T09:31:55.288Z,23.25
2018-04-22T09:32:55.222Z,23.20
2018-04-22T09:33:55.214Z,23.20
2018-04-22T09:34:55.140Z,23.28
2018-04-22T09:35:55.101Z,23.24
2018-04-22T09:36:55.085Z,23.33
2018-04-22T09:37:55.020Z,23.37
2018-04-22T09:38:54.978Z,23.46
2018-04-22T09:39:54.940Z,23.56
2018-04-22T09:40:54.901Z,23.71
2018-04-22T09:41:54.896Z,23.71
2018-04-22T09:42:54.818Z,23.80
2018-04-22T09:43:54.781Z,23.89
2018-04-22T09:44:54.739Z,23.99
2018-04-22T09:45:54.712Z,23.95
2018-04-22T09:46:54.680Z,23.88
2018-04-22T09:47:54.621Z,23.81
2018-04-22T09:48:54.579Z,23.76
2018-04-22T09:49:54.590Z,23.76
2018-04-22T09:50:54.499Z,23.83
2018-04-22T09:51:54.486Z,23.83
2018-04-22T09:52:54.422Z,23.95
2018-04-22T09:53:54.381Z,23.89
2018-04-22T09:54:54.345Z,23.83
2018-04-22T09:55:54.301Z,23.78
2018-04-22T09:56:54.288Z,23.70
2018-04-22T09:57:54.223Z,23.62
2018-04-22T09:58:54.181Z,23.73
2018-04-22T09:59:54.141Z,23.65
2018-04-22T10:00:54.105Z,23.73
2018-04-22T10:01:54.085Z,23.61
2018-04-22T10:02:54.038Z,23.62
2018-04-22T10:03:53.984Z,23.70
2018-04-22T10:04:53.993Z,23.61
2018-04-22T10:05:53.905Z,23.63
2018-04-22T10:06:53.885Z,23.65
2018-04-22T10:07:53.823Z,23.71
2018-04-22T10:08:53.783Z,23.80
2018-04-22T10:09:53.746Z,23.84
2018-04-22T10:10:53.708Z,23.95
2018-04-22T10:11:53.691Z,23.93
2018-04-22T10:12:53.625Z,24.07
2018-04-22T10:13:53.589Z,23.96
2018-04-22T10:14:53.546Z,23.99
2018-04-22T10:15:53.506Z,23.90
2018-04-22T10:16:53.490Z,23.83
2018-04-22T10:17:53.425Z,23.78
2018-04-22T10:18:53.388Z,23.63
2018-04-22T10:19:53.346Z,23.80
2018-04-22T10:20:53.308Z,23.68
2018-04-22T10:21:53.340Z,23.70
2018-04-22T10:22:53.227Z,23.80
2018-04-22T10:23:53.188Z,23.86
2018-04-22T10:24:53.146Z,23.93
2018-04-22T10:25:53.107Z,23.89
2018-04-22T10:26:53.090Z,23.93
2018-04-22T10:27:53.026Z,24.03
2018-04-22T10:28:52.989Z,24.05
2018-04-22T10:29:52.947Z,24.15
2018-04-22T10:30:52.907Z,24.18
2018-04-22T10:31:52.896Z,24.10
2018-04-22T10:32:52.831Z,24.05
2018-04-22T10:33:52.790Z,24.07
2018-04-22T10:34:52.753Z,24.03
2018-04-22T10:35:52.713Z,24.05
2018-04-22T10:36:52.695Z,24.05
2018-04-22T10:37:52.634Z,24.08
2018-04-22T10:38:52.593Z,24.03
2018-04-22T10:39:52.551Z,24.02
2018-04-22T10:40:52.511Z,24.15
2018-04-22T10:41:52.528Z,24.21
2018-04-22T10:42:52.435Z,24.15
2018-04-22T10:43:52.396Z,24.14
2018-04-22T10:44:52.367Z,24.14
2018-04-22T10:45:52.318Z,24.20
2018-04-22T10:46:52.295Z,24.15
2018-04-22T10:47:52.236Z,24.13
2018-04-22T10:48:52.195Z,24.15
2018-04-22T10:49:52.157Z,24.17
2018-04-22T10:50:52.116Z,24.14
2018-04-22T10:51:52.098Z,24.18
2018-04-22T10:52:52.036Z,24.35
2018-04-22T10:53:52.011Z,24.35
2018-04-22T10:54:51.961Z,24.48
2018-04-22T10:55:51.919Z,24.57
2018-04-22T10:56:51.901Z,24.48
2018-04-22T10:57:51.844Z,24.58
2018-04-22T10:58:51.797Z,24.54
2018-04-22T10:59:51.782Z,24.54
2018-04-22T11:00:51.720Z,24.63
2018-04-22T11:01:51.704Z,24.62
2018-04-22T11:02:51.652Z,24.65
2018-04-22T11:03:51.598Z,24.52
2018-04-22T11:04:51.561Z,24.55
2018-04-22T11:05:51.523Z,24.57
2018-04-22T11:06:51.505Z,24.54
2018-04-22T11:07:51.442Z,24.58
2018-04-22T11:08:51.402Z,24.52
2018-04-22T11:09:51.366Z,24.62
2018-04-22T11:10:51.327Z,24.77
2018-04-22T11:11:51.311Z,24.76
2018-04-22T11:12:51.246Z,24.86
2018-04-22T11:13:51.205Z,24.88
2018-04-22T11:14:51.166Z,24.96
2018-04-22T11:15:51.128Z,24.88
2018-04-22T11:16:51.110Z,25.04
2018-04-22T11:17:51.047Z,24.95
2018-04-22T11:18:51.008Z,24.96
2018-04-22T11:19:50.969Z,24.96
2018-04-22T11:20:50.931Z,24.92
2018-04-22T11:21:50.929Z,24.83
2018-04-22T11:22:50.853Z,24.85
2018-04-22T11:23:50.812Z,24.85
2018-04-22T11:24:50.779Z,24.81
2018-04-22T11:25:50.736Z,24.85
2018-04-22T11:26:50.696Z,24.83
2018-04-22T11:27:50.675Z,24.83
2018-04-22T11:28:50.622Z,24.83
2018-04-22T11:29:50.576Z,24.88
2018-04-22T11:30:50.539Z,24.86
2018-04-22T11:31:50.504Z,24.93
2018-04-22T11:32:50.485Z,25.04
2018-04-22T11:33:50.420Z,25.04
2018-04-22T11:34:50.380Z,25.01
2018-04-22T11:35:50.343Z,25.01
2018-04-22T11:36:50.303Z,25.07
2018-04-22T11:37:50.287Z,25.14
2018-04-22T11:38:50.225Z,25.14
2018-04-22T11:39:50.187Z,25.19
2018-04-22T11:40:50.163Z,25.04
2018-04-22T11:41:50.106Z,25.07
2018-04-22T11:42:50.092Z,25.03
2018-04-22T11:43:50.025Z,25.06
2018-04-22T11:44:49.993Z,25.14
2018-04-22T11:45:49.952Z,25.28
2018-04-22T11:46:49.911Z,25.18
2018-04-22T11:47:49.932Z,25.15
2018-04-22T11:48:49.829Z,25.15
2018-04-22T11:49:49.795Z,25.18
2018-04-22T11:50:49.753Z,25.18
2018-04-22T11:51:49.716Z,25.18
2018-04-22T11:52:49.700Z,25.13
2018-04-22T11:53:49.637Z,25.08
2018-04-22T11:54:49.599Z,25.07
2018-04-22T11:55:49.556Z,25.04
2018-04-22T11:56:49.521Z,25.06
2018-04-22T11:57:49.502Z,25.11
2018-04-22T11:58:49.441Z,25.13
2018-04-22T11:59:49.435Z,25.18
2018-04-22T12:00:49.361Z,25.15
2018-04-22T12:01:49.326Z,25.13
2018-04-22T12:02:49.306Z,25.19
2018-04-22T12:03:49.242Z,25.13
2018-04-22T12:04:49.203Z,25.33
2018-04-22T12:05:49.178Z,25.28
2018-04-22T12:06:49.130Z,25.28
2018-04-22T12:07:49.112Z,25.33
2018-04-22T12:08:49.048Z,25.37
2018-04-22T12:09:49.008Z,25.37
2018-04-22T12:10:48.972Z,25.45
2018-04-22T12:11:48.931Z,25.43
2018-04-22T12:12:48.916Z,25.45
2018-04-22T12:13:48.855Z,25.48
2018-04-22T12:14:48.823Z,25.45
2018-04-22T12:15:48.778Z,25.50
2018-04-22T12:16:48.738Z,25.48
2018-04-22T12:17:48.726Z,25.45
2018-04-22T12:18:48.662Z,25.55
2018-04-22T12:19:48.623Z,25.66
2018-04-22T12:20:48.585Z,25.67
2018-04-22T12:21:48.549Z,25.73
2018-04-22T12:22:48.537Z,25.82
2018-04-22T12:23:48.469Z,25.84
2018-04-22T12:24:48.432Z,25.82
2018-04-22T12:25:48.394Z,25.90
2018-04-22T12:26:48.360Z,25.95
2018-04-22T12:27:48.340Z,25.88
2018-04-22T12:28:48.277Z,25.87
2018-04-22T12:29:48.240Z,25.92
2018-04-22T12:30:48.199Z,25.99
2018-04-22T12:31:48.164Z,25.97
2018-04-22T12:32:48.148Z,25.85
2018-04-22T12:33:48.089Z,25.88
2018-04-22T12:34:48.045Z,25.78
2018-04-22T12:35:48.010Z,25.77
2018-04-22T12:36:47.971Z,25.78
2018-04-22T12:37:47.957Z,25.78
2018-04-22T12:38:47.895Z,25.84
2018-04-22T12:39:47.854Z,25.78
2018-04-22T12:40:47.817Z,25.77
2018-04-22T12:41:47.783Z,25.90
2018-04-22T12:42:47.765Z,25.84
2018-04-22T12:43:47.708Z,25.84
2018-04-22T12:44:47.667Z,25.87
2018-04-22T12:45:47.637Z,25.87
2018-04-22T12:46:47.589Z,25.88
2018-04-22T12:47:47.600Z,25.95
2018-04-22T12:48:47.511Z,25.90
2018-04-22T12:49:47.478Z,25.90
2018-04-22T12:50:47.436Z,25.88
2018-04-22T12:51:47.395Z,26.03